createdAt,value
2018-02-19T00:01:05.115Z,39.95
2018-02-19T00:03:32.631Z,43.00
2018-02-19T00:06:00.164Z,41.53
2018-02-19T00:08:27.663Z,46.17
2018-02-19T00:10:55.203Z,38.08
2018-02-19T00:13:22.721Z,42.55
2018-02-19T00:15:50.229Z,38.50
2018-02-19T00:18:17.754Z,38.85
2018-02-19T00:20:46.024Z,37.85
2018-02-19T00:23:14.338Z,35.65
2018-02-19T00:25:41.864Z,35.00
2018-02-19T00:28:10.141Z,40.92
2018-02-19T00:30:38.445Z,36.22
2018-02-19T00:33:05.973Z,32.15
2018-02-19T00:35:34.271Z,31.55
2018-02-19T00:38:01.777Z,36.97
2018-02-19T00:40:29.288Z,32.05
2018-02-19T00:42:56.922Z,28.35
2018-02-19T00:45:24.455Z,32.72
2018-02-19T00:47:52.004Z,29.00
2018-02-19T00:50:20.286Z,33.28
2018-02-19T00:52:47.797Z,32.90
2018-02-19T00:55:16.102Z,32.28
2018-02-19T00:57:43.632Z,36.63
2018-02-19T01:00:11.929Z,36.00
2018-02-19T01:02:39.518Z,31.55
2018-02-19T01:05:07.023Z,31.90
2018-02-19T01:07:35.345Z,36.03
2018-02-19T01:10:02.853Z,35.88
2018-02-19T01:12:30.384Z,38.95
2018-02-19T01:14:57.901Z,33.03
2018-02-19T01:17:26.176Z,39.78
2018-02-19T01:19:54.488Z,31.95
2018-02-19T01:22:22.017Z,34.05
2018-02-19T01:24:49.566Z,33.47
2018-02-19T01:27:17.845Z,32.10
2018-02-19T01:29:46.127Z,34.00
2018-02-19T01:32:15.020Z,34.17
2018-02-19T01:34:43.298Z,36.60
2018-02-19T01:37:10.841Z,42.80
2018-02-19T01:39:39.116Z,36.75
2018-02-19T01:42:06.644Z,33.90
2018-02-19T01:44:34.175Z,30.42
2018-02-19T01:47:01.706Z,32.10
2018-02-19T01:49:29.983Z,36.00
2018-02-19T01:51:57.493Z,34.88
2018-02-19T01:54:25.873Z,37.08
2018-02-19T01:56:53.386Z,34.97
2018-02-19T01:59:21.676Z,35.45
2018-02-19T02:01:49.175Z,40.35
2018-02-19T02:04:16.696Z,36.03
2018-02-19T02:06:44.445Z,33.75
2018-02-19T02:09:12.720Z,37.00
2018-02-19T02:11:41.005Z,35.38
2018-02-19T02:14:09.285Z,34.13
2018-02-19T02:16:36.813Z,33.65
2018-02-19T02:19:04.323Z,37.80
2018-02-19T02:21:31.856Z,38.35
2018-02-19T02:24:00.134Z,43.03
2018-02-19T02:26:28.412Z,34.47
2018-02-19T02:28:56.706Z,37.17
2018-02-19T02:31:24.209Z,38.00
2018-02-19T02:33:51.726Z,37.78
2018-02-19T02:36:19.243Z,38.20
2018-02-19T02:38:47.049Z,50.25
2018-02-19T02:41:14.561Z,35.47
2018-02-19T02:43:42.068Z,39.65
2018-02-19T02:46:09.593Z,42.00
2018-02-19T02:48:37.106Z,37.90
2018-02-19T02:51:04.639Z,32.55
2018-02-19T02:53:32.144Z,34.72
2018-02-19T02:55:59.668Z,40.30
2018-02-19T02:58:27.565Z,38.33
2018-02-19T03:00:55.072Z,39.83
2018-02-19T03:03:23.377Z,42.17
2018-02-19T03:05:50.884Z,36.72
2018-02-19T03:08:18.388Z,36.83
2018-02-19T03:10:45.921Z,34.47
2018-02-19T03:13:13.445Z,35.72
2018-02-19T03:15:41.008Z,33.95
2018-02-19T03:18:08.524Z,33.67
2018-02-19T03:20:36.794Z,32.55
2018-02-19T03:23:05.077Z,44.40
2018-02-19T03:25:32.577Z,37.83
2018-02-19T03:28:00.092Z,38.00
2018-02-19T03:30:28.366Z,38.22
2018-02-19T03:32:56.666Z,43.85
2018-02-19T03:35:24.172Z,42.85
2018-02-19T03:37:51.703Z,35.15
2018-02-19T03:40:19.228Z,34.15
2018-02-19T03:42:47.509Z,34.72
2018-02-19T03:45:15.812Z,39.15
2018-02-19T03:47:43.318Z,40.92
2018-02-19T03:50:10.862Z,43.58
2018-02-19T03:52:38.373Z,41.47
2018-02-19T03:55:05.885Z,37.10
2018-02-19T03:57:33.428Z,40.15
2018-02-19T04:00:00.932Z,32.05
2018-02-19T04:02:28.473Z,39.42
2018-02-19T04:04:55.976Z,38.53
2018-02-19T04:07:23.517Z,33.33
2018-02-19T04:09:51.785Z,39.90
2018-02-19T04:12:20.056Z,40.50
2018-02-19T04:14:47.571Z,41.28
2018-02-19T04:17:15.096Z,38.92
2018-02-19T04:19:43.384Z,39.42
2018-02-19T04:22:10.892Z,34.22
2018-02-19T04:24:38.403Z,36.08
2018-02-19T04:27:05.908Z,31.70
2018-02-19T04:29:33.415Z,36.55
2018-02-19T04:32:00.949Z,36.38
2018-02-19T04:34:28.456Z,32.55
2018-02-19T04:36:55.976Z,35.13
2018-02-19T04:39:24.248Z,30.50
2018-02-19T04:41:51.983Z,32.50
2018-02-19T04:44:21.121Z,30.62
2018-02-19T04:46:49.881Z,28.90
2018-02-19T04:49:17.403Z,28.70
2018-02-19T04:51:44.951Z,28.95
2018-02-19T04:54:12.464Z,32.55
2018-02-19T04:56:39.964Z,35.35
2018-02-19T04:59:07.469Z,28.75
2018-02-19T05:01:34.994Z,30.00
2018-02-19T05:04:02.499Z,24.65
2018-02-19T05:06:30.021Z,31.95
2018-02-19T05:08:57.693Z,24.52
2018-02-19T05:11:25.216Z,28.42
2018-02-19T05:13:53.496Z,31.00
2018-02-19T05:16:21.759Z,31.15
2018-02-19T05:18:50.063Z,32.38
2018-02-19T05:21:17.567Z,30.42
2018-02-19T05:23:45.071Z,32.35
2018-02-19T05:26:12.602Z,30.08
2018-02-19T05:28:40.097Z,32.47
2018-02-19T05:31:07.631Z,35.85
2018-02-19T05:33:35.923Z,27.42
2018-02-19T05:36:03.429Z,26.48
2018-02-19T05:38:30.957Z,30.12
2018-02-19T05:40:58.463Z,28.05
2018-02-19T05:43:25.997Z,33.35
2018-02-19T05:45:53.493Z,32.00
2018-02-19T05:48:21.009Z,31.70
2018-02-19T05:50:48.537Z,31.95
2018-02-19T05:53:16.812Z,34.88
2018-02-19T05:55:45.102Z,36.38
2018-02-19T05:58:12.608Z,29.35
2018-02-19T06:00:40.133Z,31.02
2018-02-19T06:03:07.662Z,31.98
2018-02-19T06:05:35.973Z,33.88
2018-02-19T06:08:03.479Z,34.53
2018-02-19T06:10:30.988Z,37.45
2018-02-19T06:12:58.641Z,37.03
2018-02-19T06:15:26.150Z,32.45
2018-02-19T06:17:53.686Z,30.27
2018-02-19T06:20:21.960Z,35.53
2018-02-19T06:22:49.492Z,31.05
2018-02-19T06:25:17.755Z,35.78
2018-02-19T06:27:46.064Z,28.35
2018-02-19T06:30:13.589Z,33.22
2018-02-19T06:32:41.873Z,37.67
2018-02-19T06:35:10.166Z,32.55
2018-02-19T06:37:37.683Z,31.75
2018-02-19T06:40:05.209Z,35.20
2018-02-19T06:42:32.709Z,29.25
2018-02-19T06:45:00.236Z,33.42
2018-02-19T06:47:27.741Z,27.35
2018-02-19T06:49:56.040Z,30.90
2018-02-19T06:52:23.540Z,28.50
2018-02-19T06:54:51.058Z,26.75
2018-02-19T06:57:18.576Z,37.42
2018-02-19T06:59:46.081Z,32.38
2018-02-19T07:02:13.611Z,29.23
2018-02-19T07:04:41.115Z,31.60
2018-02-19T07:07:08.637Z,35.05
2018-02-19T07:09:36.923Z,30.35
2018-02-19T07:12:05.316Z,32.05
2018-02-19T07:14:32.829Z,36.83
2018-02-19T07:17:00.339Z,36.83
2018-02-19T07:19:27.863Z,37.75
2018-02-19T07:21:55.375Z,32.60
2018-02-19T07:24:22.906Z,34.13
2018-02-19T07:26:50.501Z,43.28
2018-02-19T07:29:19.055Z,35.90
2018-02-19T07:31:46.571Z,35.20
2018-02-19T07:34:14.116Z,36.65
2018-02-19T07:36:41.617Z,42.67
2018-02-19T07:39:09.906Z,35.28
2018-02-19T07:41:38.205Z,30.95
2018-02-19T07:44:05.717Z,35.72
2018-02-19T07:46:33.299Z,31.80
2018-02-19T07:49:01.561Z,44.13
2018-02-19T07:51:29.105Z,38.88
2018-02-19T07:53:56.624Z,38.72
2018-02-19T07:56:24.166Z,36.90
2018-02-19T07:58:52.436Z,34.90
2018-02-19T08:01:20.711Z,39.47
2018-02-19T08:03:49.006Z,35.10
2018-02-19T08:06:16.529Z,40.05
2018-02-19T08:08:44.106Z,39.80
2018-02-19T08:11:12.396Z,39.90
2018-02-19T08:13:39.918Z,42.95
2018-02-19T08:16:07.420Z,31.58
2018-02-19T08:18:34.958Z,37.00
2018-02-19T08:21:02.498Z,34.08
2018-02-19T08:23:30.002Z,39.33
2018-02-19T08:25:57.521Z,35.60
2018-02-19T08:28:25.034Z,34.50
2018-02-19T08:30:52.608Z,36.42
2018-02-19T08:33:20.106Z,45.08
2018-02-19T08:35:47.613Z,40.08
2018-02-19T08:38:15.132Z,45.38
2018-02-19T08:40:43.413Z,39.40
2018-02-19T08:43:10.940Z,38.85
2018-02-19T08:45:38.453Z,39.10
2018-02-19T08:48:05.988Z,37.10
2018-02-19T08:50:33.497Z,40.03
2018-02-19T08:53:00.996Z,41.35
2018-02-19T08:55:28.522Z,35.58
2018-02-19T08:57:56.788Z,36.55
2018-02-19T09:00:24.335Z,34.63
2018-02-19T09:02:51.913Z,38.25
2018-02-19T09:05:19.440Z,34.90
2018-02-19T09:07:47.729Z,38.13
2018-02-19T09:10:15.246Z,38.50
2018-02-19T09:12:42.761Z,33.42
2018-02-19T09:15:10.263Z,30.33
2018-02-19T09:17:37.784Z,39.65
2018-02-19T09:20:06.054Z,46.22
2018-02-19T09:22:33.627Z,34.33
2018-02-19T09:25:01.138Z,40.05
2018-02-19T09:27:28.642Z,39.63
2018-02-19T09:29:56.170Z,37.25
2018-02-19T09:32:24.447Z,41.45
2018-02-19T09:34:52.739Z,33.50
2018-02-19T09:37:20.240Z,35.92
2018-02-19T09:39:47.768Z,32.30
2018-02-19T09:42:15.286Z,37.30
2018-02-19T09:44:42.817Z,35.72
2018-02-19T09:47:10.331Z,31.42
2018-02-19T09:49:38.601Z,35.55
2018-02-19T09:52:06.890Z,37.90
2018-02-19T09:54:34.393Z,35.83
2018-02-19T09:57:01.955Z,39.03
2018-02-19T09:59:29.461Z,34.75
2018-02-19T10:01:57.755Z,33.83
2018-02-19T10:04:25.265Z,38.65
2018-02-19T10:06:52.789Z,33.97
2018-02-19T10:09:20.303Z,39.22
2018-02-19T10:11:48.589Z,37.25
2018-02-19T10:14:16.893Z,35.08
2018-02-19T10:16:44.455Z,36.80
2018-02-19T10:19:11.977Z,42.20
2018-02-19T10:21:40.285Z,36.28
2018-02-19T10:24:07.928Z,42.13
2018-02-19T10:26:36.196Z,40.12
2018-02-19T10:29:04.499Z,35.80
2018-02-19T10:31:32.026Z,37.63
2018-02-19T10:33:59.542Z,37.45
2018-02-19T10:36:27.303Z,35.67
2018-02-19T10:38:54.808Z,38.35
2018-02-19T10:41:22.333Z,40.95
2018-02-19T10:43:49.921Z,41.60
2018-02-19T10:46:17.454Z,31.17
2018-02-19T10:48:44.965Z,27.75
2018-02-19T10:51:13.299Z,26.95
2018-02-19T10:53:40.800Z,41.33
2018-02-19T10:56:09.066Z,31.85
2018-02-19T10:58:36.594Z,28.55
2018-02-19T11:01:04.085Z,27.37
2018-02-19T11:03:31.609Z,29.65
2018-02-19T11:05:59.681Z,33.50
2018-02-19T11:08:27.204Z,35.75
2018-02-19T11:10:55.485Z,32.63
2018-02-19T11:13:23.029Z,34.58
2018-02-19T11:15:50.533Z,34.08
2018-02-19T11:18:18.052Z,33.53
2018-02-19T11:20:46.341Z,28.02
2018-02-19T11:23:13.845Z,26.73
2018-02-19T11:25:41.363Z,28.62
2018-02-19T11:28:08.960Z,31.45
2018-02-19T11:30:36.481Z,38.70
2018-02-19T11:33:04.744Z,36.97
2018-02-19T11:35:33.034Z,41.58
2018-02-19T11:38:01.480Z,39.90
2018-02-19T11:40:28.989Z,34.50
2018-02-19T11:42:56.514Z,30.15
2018-02-19T11:45:24.014Z,31.37
2018-02-19T11:47:51.532Z,37.65
2018-02-19T11:50:19.045Z,32.72
2018-02-19T11:52:46.572Z,28.75
2018-02-19T11:55:14.108Z,37.72
2018-02-19T11:57:41.606Z,31.42
2018-02-19T12:00:09.145Z,28.83
2018-02-19T12:02:37.417Z,28.90
2018-02-19T12:05:04.952Z,32.45
2018-02-19T12:07:32.483Z,33.63
2018-02-19T12:10:00.022Z,40.05
2018-02-19T12:12:28.396Z,33.45
2018-02-19T12:14:55.921Z,30.45
2018-02-19T12:17:23.454Z,30.33
2018-02-19T12:19:50.960Z,33.38
2018-02-19T12:22:19.256Z,36.58
2018-02-19T12:24:46.772Z,33.97
2018-02-19T12:27:14.300Z,30.73
2018-02-19T12:29:41.805Z,29.10
2018-02-19T12:32:10.093Z,35.35
2018-02-19T12:34:38.401Z,35.88
2018-02-19T12:37:05.943Z,32.90
2018-02-19T12:39:33.492Z,36.97
2018-02-19T12:42:01.779Z,31.55
2018-02-19T12:44:29.308Z,37.15
2018-02-19T12:46:56.814Z,30.95
2018-02-19T12:49:24.336Z,37.63
2018-02-19T12:51:51.855Z,32.67
2018-02-19T12:54:19.357Z,35.28
2018-02-19T12:56:47.661Z,27.62
2018-02-19T12:59:15.175Z,35.45
2018-02-19T13:01:42.711Z,29.85
2018-02-19T13:04:10.231Z,32.33
2018-02-19T13:06:37.769Z,32.30
2018-02-19T13:09:06.048Z,34.85
2018-02-19T13:11:33.576Z,28.25
2018-02-19T13:14:01.082Z,36.88
2018-02-19T13:16:29.366Z,33.70
2018-02-19T13:18:57.677Z,31.15
2018-02-19T13:21:25.204Z,41.88
2018-02-19T13:23:53.508Z,31.15
2018-02-19T13:26:21.022Z,34.08
2018-02-19T13:28:49.318Z,33.58
2018-02-19T13:31:17.581Z,37.05
2018-02-19T13:33:45.874Z,32.70
2018-02-19T13:36:13.381Z,32.72
2018-02-19T13:38:40.933Z,37.95
2018-02-19T13:41:08.429Z,31.35
2018-02-19T13:43:37.344Z,35.67
2018-02-19T13:46:05.634Z,32.72
2018-02-19T13:48:33.136Z,31.33
2018-02-19T13:51:00.664Z,35.85
2018-02-19T13:53:28.172Z,33.85
2018-02-19T13:55:55.715Z,35.70
2018-02-19T13:58:23.227Z,32.40
2018-02-19T14:00:50.762Z,35.90
2018-02-19T14:03:19.040Z,31.20
2018-02-19T14:05:47.301Z,31.33
2018-02-19T14:08:14.849Z,35.03
2018-02-19T14:10:43.347Z,28.48
2018-02-19T14:13:10.891Z,36.63
2018-02-19T14:15:38.387Z,38.78
2018-02-19T14:18:06.739Z,38.03
2018-02-19T14:20:34.202Z,31.37
2018-02-19T14:23:01.728Z,37.47
2018-02-19T14:25:29.225Z,40.35
2018-02-19T14:27:56.730Z,37.83
2018-02-19T14:30:24.272Z,43.85
2018-02-19T14:32:52.537Z,40.53
2018-02-19T14:35:20.838Z,42.53
2018-02-19T14:37:48.360Z,38.22
2018-02-19T14:40:15.878Z,43.85
2018-02-19T14:42:43.386Z,40.90
2018-02-19T14:45:10.908Z,38.78
2018-02-19T14:47:38.414Z,39.55
2018-02-19T14:50:06.697Z,37.28
2018-02-19T14:52:35.743Z,39.20
2018-02-19T14:55:03.254Z,36.10
2018-02-19T14:57:31.561Z,36.97
2018-02-19T14:59:59.740Z,36.45
2018-02-19T15:02:27.305Z,37.67
2018-02-19T15:04:54.816Z,44.38
2018-02-19T15:07:23.100Z,40.30
2018-02-19T15:09:52.385Z,36.10
2018-02-19T15:12:20.682Z,42.40
2018-02-19T15:14:48.997Z,39.22
2018-02-19T15:17:16.501Z,40.22
2018-02-19T15:19:44.049Z,36.97
2018-02-19T15:22:11.554Z,36.28
2018-02-19T15:24:39.073Z,37.00
2018-02-19T15:27:06.596Z,45.15
2018-02-19T15:29:34.126Z,39.75
2018-02-19T15:32:01.647Z,32.25
2018-02-19T15:34:29.167Z,42.55
2018-02-19T15:36:56.698Z,37.00
2018-02-19T15:39:24.973Z,33.60
2018-02-19T15:41:53.268Z,40.05
2018-02-19T15:44:20.777Z,38.65
2018-02-19T15:46:48.325Z,41.03
2018-02-19T15:49:15.840Z,43.65
2018-02-19T15:51:43.371Z,36.00
2018-02-19T15:54:11.692Z,34.95
2018-02-19T15:56:39.196Z,44.67
2018-02-19T15:59:06.725Z,40.17
2018-02-19T16:01:34.259Z,40.88
2018-02-19T16:04:01.798Z,39.53
2018-02-19T16:06:30.090Z,36.72
2018-02-19T16:08:58.386Z,35.60
2018-02-19T16:11:25.898Z,33.65
2018-02-19T16:13:53.429Z,43.38
2018-02-19T16:16:20.941Z,36.13
2018-02-19T16:18:49.216Z,35.10
2018-02-19T16:21:16.789Z,36.97
2018-02-19T16:23:44.314Z,34.78
2018-02-19T16:26:11.842Z,34.97
2018-02-19T16:28:39.361Z,39.35
2018-02-19T16:31:07.661Z,33.35
2018-02-19T16:33:35.422Z,38.15
2018-02-19T16:36:02.946Z,36.47
2018-02-19T16:38:31.225Z,40.17
2018-02-19T16:40:58.745Z,40.15
2018-02-19T16:43:26.272Z,40.60
2018-02-19T16:45:53.780Z,45.80
2018-02-19T16:48:21.320Z,45.17
2018-02-19T16:50:48.822Z,45.70
2018-02-19T16:53:17.120Z,51.83
2018-02-19T16:55:44.652Z,50.97
2018-02-19T16:58:12.178Z,43.65
2018-02-19T17:00:39.701Z,43.92
2018-02-19T17:03:07.201Z,44.35
2018-02-19T17:05:34.731Z,54.28
2018-02-19T17:08:02.238Z,47.10
2018-02-19T17:10:29.760Z,48.10
2018-02-19T17:12:57.264Z,47.45
2018-02-19T17:15:24.795Z,42.72
2018-02-19T17:17:52.305Z,47.10
2018-02-19T17:20:20.611Z,42.50
2018-02-19T17:22:48.138Z,48.65
2018-02-19T17:25:16.427Z,48.33
2018-02-19T17:27:44.716Z,53.53
2018-02-19T17:30:12.235Z,50.70
2018-02-19T17:32:39.751Z,53.53
2018-02-19T17:35:07.900Z,49.83
2018-02-19T17:37:35.433Z,48.45
2018-02-19T17:40:02.943Z,54.33
2018-02-19T17:42:30.477Z,50.20
2018-02-19T17:44:57.997Z,46.50
2018-02-19T17:47:25.508Z,48.38
2018-02-19T17:49:53.040Z,51.53
2018-02-19T17:52:21.332Z,44.38
2018-02-19T17:54:49.633Z,48.30
2018-02-19T17:57:17.154Z,47.20
2018-02-19T17:59:45.459Z,46.90
2018-02-19T18:02:12.983Z,46.13
2018-02-19T18:04:40.518Z,51.20
2018-02-19T18:07:08.015Z,46.05
2018-02-19T18:09:36.291Z,51.35
2018-02-19T18:12:04.625Z,57.20
2018-02-19T18:14:32.325Z,53.87
2018-02-19T18:16:59.854Z,49.53
2018-02-19T18:19:27.373Z,53.30
2018-02-19T18:21:55.671Z,51.28
2018-02-19T18:24:23.188Z,46.60
2018-02-19T18:26:50.755Z,46.75
2018-02-19T18:29:19.030Z,52.55
2018-02-19T18:31:49.254Z,59.60
2018-02-19T18:34:17.539Z,48.33
2018-02-19T18:36:45.831Z,52.13
2018-02-19T18:39:13.363Z,48.40
2018-02-19T18:41:40.873Z,58.00
2018-02-19T18:44:08.420Z,53.40
2018-02-19T18:46:35.934Z,56.72
2018-02-19T18:49:03.483Z,59.03
2018-02-19T18:51:30.988Z,53.42
2018-02-19T18:53:58.548Z,49.30
2018-02-19T18:56:26.131Z,47.70
2018-02-19T18:58:53.659Z,56.97
2018-02-19T19:01:21.957Z,50.85
2018-02-19T19:03:49.475Z,60.90
2018-02-19T19:06:17.010Z,43.10
2018-02-19T19:09:00.412Z,47.38
2018-02-19T19:11:27.944Z,61.85
2018-02-19T19:13:56.217Z,49.92
2018-02-19T19:16:24.517Z,46.95
2018-02-19T19:18:52.053Z,56.83
2018-02-19T19:21:20.396Z,54.67
2018-02-19T19:23:47.889Z,54.17
2018-02-19T19:26:16.165Z,55.10
2018-02-19T19:28:44.680Z,54.00
2018-02-19T19:31:12.194Z,53.58
2018-02-19T19:33:39.723Z,61.95
2018-02-19T19:36:07.997Z,49.78
2018-02-19T19:38:35.564Z,54.92
2018-02-19T19:41:03.069Z,56.20
2018-02-19T19:43:31.378Z,58.17
2018-02-19T19:45:58.898Z,49.33
2018-02-19T19:48:27.193Z,47.67
2018-02-19T19:50:55.491Z,52.78
2018-02-19T19:53:23.002Z,57.95
2018-02-19T19:55:50.526Z,55.42
2018-02-19T19:58:18.057Z,58.28
2018-02-19T20:00:46.350Z,56.88
2018-02-19T20:03:13.865Z,49.22
2018-02-19T20:05:41.375Z,53.95
2018-02-19T20:08:08.912Z,55.70
2018-02-19T20:10:37.194Z,56.15
2018-02-19T20:13:05.484Z,59.58
2018-02-19T20:15:32.992Z,54.63
2018-02-19T20:18:01.410Z,64.30
2018-02-19T20:20:28.925Z,51.97
2018-02-19T20:22:56.457Z,52.08
2018-02-19T20:25:23.982Z,56.65
2018-02-19T20:27:52.245Z,60.97
2018-02-19T20:30:20.597Z,56.90
2018-02-19T20:32:48.106Z,61.80
2018-02-19T20:35:15.651Z,58.55
2018-02-19T20:37:43.199Z,56.67
2018-02-19T20:40:11.076Z,58.58
2018-02-19T20:42:39.394Z,62.33
2018-02-19T20:45:06.900Z,66.90
2018-02-19T20:47:34.459Z,64.05
2018-02-19T20:50:01.979Z,64.25
2018-02-19T20:52:29.526Z,53.70
2018-02-19T20:54:57.053Z,49.17
2018-02-19T20:57:25.369Z,59.20
2018-02-19T20:59:52.925Z,56.60
2018-02-19T21:02:20.475Z,59.00
2018-02-19T21:04:48.044Z,53.28
2018-02-19T21:07:15.554Z,57.25
2018-02-19T21:09:43.097Z,59.22
2018-02-19T21:12:10.613Z,50.92
2018-02-19T21:14:38.191Z,59.65
2018-02-19T21:17:05.728Z,61.80
2018-02-19T21:19:33.310Z,54.92
2018-02-19T21:22:00.853Z,56.85
2018-02-19T21:24:28.377Z,58.70
2018-02-19T21:26:55.910Z,47.80
2018-02-19T21:29:23.424Z,49.65
2018-02-19T21:31:50.969Z,54.80
2018-02-19T21:34:19.249Z,54.15
2018-02-19T21:36:47.576Z,57.38
2018-02-19T21:39:15.788Z,56.42
2018-02-19T21:41:43.325Z,54.97
2018-02-19T21:44:10.900Z,61.53
2018-02-19T21:46:38.408Z,53.97
2018-02-19T21:49:05.952Z,51.40
2018-02-19T21:51:34.229Z,56.85
2018-02-19T21:54:02.513Z,58.22
2018-02-19T21:56:31.193Z,61.60
2018-02-19T21:58:59.494Z,63.60
2018-02-19T22:01:32.723Z,54.17
2018-02-19T22:04:06.226Z,49.38
2018-02-19T22:06:36.731Z,55.17
2018-02-19T22:09:09.127Z,51.22
2018-02-19T22:11:36.677Z,59.67
2018-02-19T22:14:04.217Z,67.68
2018-02-19T22:16:31.801Z,54.72
2018-02-19T22:18:59.411Z,55.90
2018-02-19T22:21:29.732Z,55.10
2018-02-19T22:23:57.280Z,54.72
2018-02-19T22:26:24.812Z,54.30
2018-02-19T22:28:53.391Z,52.95
2018-02-19T22:31:20.954Z,53.53
2018-02-19T22:33:51.173Z,51.58
2018-02-19T22:36:24.694Z,55.90
2018-02-19T22:38:53.042Z,57.83
2018-02-19T22:41:23.498Z,51.85
2018-02-19T22:43:54.155Z,52.30
2018-02-19T22:46:24.675Z,51.50
2018-02-19T22:48:53.528Z,50.65
2018-02-19T22:51:21.988Z,57.70
2018-02-19T22:53:49.527Z,54.80
2018-02-19T22:56:17.852Z,59.03
2018-02-19T22:58:46.451Z,56.10
2018-02-19T23:01:14.030Z,55.33
2018-02-19T23:03:41.602Z,52.80
2018-02-19T23:06:09.161Z,58.28
2018-02-19T23:08:36.692Z,54.15
2018-02-19T23:11:04.274Z,57.22
2018-02-19T23:13:31.792Z,62.30
2018-02-19T23:15:59.367Z,67.70
2018-02-19T23:18:26.964Z,49.40
2018-02-19T23:21:00.854Z,57.72
2018-02-19T23:23:31.422Z,57.90
2018-02-19T23:25:59.739Z,59.40
2018-02-19T23:28:30.491Z,55.03
2018-02-19T23:30:58.026Z,56.78
2018-02-19T23:33:25.567Z,66.80
2018-02-19T23:35:54.081Z,57.33
2018-02-19T23:38:22.524Z,57.85
2018-02-19T23:40:53.079Z,61.72
2018-02-19T23:43:26.793Z,60.78
2018-02-19T23:45:54.434Z,60.80
2018-02-19T23:48:21.991Z,56.40
2018-02-19T23:50:49.553Z,60.95
2018-02-19T23:53:17.121Z,53.08
2018-02-19T23:55:44.673Z,64.07
2018-02-19T23:58:12.222Z,57.45
